createdAt,value
2023-05-02T00:02:27.773Z,101765.26
2023-05-02T00:04:55.911Z,101764.77
2023-05-02T00:07:24.276Z,101764.31
2023-05-02T00:09:52.407Z,101765.09
2023-05-02T00:12:20.276Z,101764.31
2023-05-02T00:14:48.110Z,101763.16
2023-05-02T00:17:22.542Z,101761.14
2023-05-02T00:19:50.642Z,101756.98
2023-05-02T00:22:18.541Z,101757.77
2023-05-02T00:24:46.534Z,101754.92
2023-05-02T00:27:15.576Z,101754.14
2023-05-02T00:29:43.435Z,101754.92
2023-05-02T00:32:11.292Z,101758.91
2023-05-02T00:34:39.293Z,101749.89
2023-05-02T00:37:07.750Z,101757.97
2023-05-02T00:39:36.991Z,101754.66
2023-05-02T00:42:04.941Z,101748.16
2023-05-02T00:44:32.946Z,101748.61
2023-05-02T00:47:03.205Z,101752.60
2023-05-02T00:49:32.489Z,101739.88
2023-05-02T00:52:00.332Z,101753.71
2023-05-02T00:54:28.483Z,101747.66
2023-05-02T00:56:56.329Z,101747.66
2023-05-02T00:59:24.405Z,101737.16
2023-05-02T01:02:10.788Z,101743.67
2023-05-02T01:05:04.733Z,101741.74
2023-05-02T01:07:56.957Z,101748.74
2023-05-02T01:10:46.301Z,101741.87
2023-05-02T01:13:22.389Z,101748.87
2023-05-02T01:15:53.623Z,101747.27
2023-05-02T01:18:26.297Z,101746.62
2023-05-02T01:21:00.706Z,101751.06
2023-05-02T01:23:53.154Z,101747.89
2023-05-02T01:27:03.914Z,101753.26
2023-05-02T01:29:33.600Z,101751.98
2023-05-02T01:32:04.355Z,101756.10
2023-05-02T01:34:34.657Z,101747.53
2023-05-02T01:37:03.526Z,101752.93
2023-05-02T01:39:32.513Z,101747.08
2023-05-02T01:42:03.934Z,101756.46
2023-05-02T01:44:34.648Z,101759.34
2023-05-02T01:47:04.743Z,101759.66
2023-05-02T01:49:36.042Z,101761.70
2023-05-02T01:52:06.580Z,101762.02
2023-05-02T01:54:36.451Z,101753.45
2023-05-02T01:57:08.387Z,101766.63
2023-05-02T01:59:38.305Z,101766.30
2023-05-02T02:02:07.708Z,101775.69
2023-05-02T02:04:38.693Z,101774.55
2023-05-02T02:07:10.262Z,101769.51
2023-05-02T02:09:38.423Z,101769.15
2023-05-02T02:12:27.648Z,101775.23
2023-05-02T02:15:04.562Z,101777.29
2023-05-02T02:17:39.288Z,101778.08
2023-05-02T02:20:10.950Z,101774.22
2023-05-02T02:22:41.771Z,101784.19
2023-05-02T02:25:13.343Z,101780.17
2023-05-02T02:27:42.322Z,101780.17
2023-05-02T02:30:11.453Z,101778.27
2023-05-02T02:32:39.621Z,101784.42
2023-05-02T02:35:08.603Z,101786.97
2023-05-02T02:37:49.378Z,101794.75
2023-05-02T02:40:31.302Z,101787.88
2023-05-02T02:42:59.164Z,101798.52
2023-05-02T02:45:33.087Z,101800.28
2023-05-02T02:48:22.557Z,101800.73
2023-05-02T02:51:10.644Z,101806.10
2023-05-02T02:53:47.551Z,101804.40
2023-05-02T02:56:23.638Z,101799.00
2023-05-02T02:59:26.295Z,101807.57
2023-05-02T03:02:05.185Z,101805.87
2023-05-02T03:04:35.497Z,101800.93
2023-05-02T03:07:03.670Z,101811.92
2023-05-02T03:09:45.037Z,101802.54
2023-05-02T03:12:13.264Z,101803.35
2023-05-02T03:14:41.994Z,101809.40
2023-05-02T03:17:09.969Z,101810.65
2023-05-02T03:19:38.587Z,101804.14
2023-05-02T03:22:07.252Z,101813.98
2023-05-02T03:24:35.111Z,101809.04
2023-05-02T03:27:03.136Z,101810.65
2023-05-02T03:29:31.129Z,101811.79
2023-05-02T03:31:59.111Z,101815.45
2023-05-02T03:34:27.044Z,101814.99
2023-05-02T03:36:54.908Z,101817.38
2023-05-02T03:39:22.876Z,101815.32
2023-05-02T03:41:50.824Z,101816.14
2023-05-02T03:44:18.769Z,101810.41
2023-05-02T03:46:47.484Z,101815.65
2023-05-02T03:49:15.402Z,101815.19
2023-05-02T03:51:43.319Z,101827.29
2023-05-02T03:54:11.246Z,101828.11
2023-05-02T03:56:42.123Z,101828.11
2023-05-02T03:59:10.633Z,101828.89
2023-05-02T04:01:38.582Z,101831.31
2023-05-02T04:04:06.961Z,101835.30
2023-05-02T04:06:35.350Z,101829.09
2023-05-02T04:09:03.333Z,101828.20
2023-05-02T04:11:31.201Z,101828.99
2023-05-02T04:13:59.055Z,101835.82
2023-05-02T04:16:27.117Z,101842.33
2023-05-02T04:18:55.036Z,101840.76
2023-05-02T04:21:23.006Z,101845.57
2023-05-02T04:23:50.839Z,101850.48
2023-05-02T04:26:18.760Z,101852.08
2023-05-02T04:28:46.595Z,101859.76
2023-05-02T04:31:14.632Z,101861.69
2023-05-02T04:33:42.565Z,101871.40
2023-05-02T04:36:11.580Z,101866.79
2023-05-02T04:38:39.452Z,101873.01
2023-05-02T04:41:08.872Z,101874.12
2023-05-02T04:43:37.725Z,101875.72
2023-05-02T04:46:05.821Z,101876.50
2023-05-02T04:48:34.989Z,101880.85
2023-05-02T04:51:02.860Z,101879.91
2023-05-02T04:53:30.775Z,101889.65
2023-05-02T04:55:59.050Z,101888.24
2023-05-02T04:58:27.105Z,101893.51
2023-05-02T05:00:56.298Z,101888.57
2023-05-02T05:03:24.241Z,101901.48
2023-05-02T05:05:52.148Z,101899.91
2023-05-02T05:08:20.317Z,101899.91
2023-05-02T05:10:48.486Z,101906.78
2023-05-02T05:13:16.645Z,101915.35
2023-05-02T05:15:45.776Z,101911.69
2023-05-02T05:18:13.783Z,101912.96
2023-05-02T05:20:41.666Z,101922.35
2023-05-02T05:23:09.696Z,101926.93
2023-05-02T05:25:37.562Z,101931.83
2023-05-02T05:28:05.587Z,101929.80
2023-05-02T05:30:33.594Z,101929.48
2023-05-02T05:33:01.812Z,101942.52
2023-05-02T05:35:29.715Z,101947.92
2023-05-02T05:37:57.651Z,101954.20
2023-05-02T05:40:25.629Z,101964.66
2023-05-02T05:42:53.620Z,101962.37
2023-05-02T05:45:21.449Z,101962.37
2023-05-02T05:47:49.399Z,101965.25
2023-05-02T05:50:17.596Z,101967.18
2023-05-02T05:52:45.620Z,101970.84
2023-05-02T05:55:13.621Z,101973.59
2023-05-02T05:57:41.696Z,101970.71
2023-05-02T06:00:10.144Z,101977.22
2023-05-02T06:02:38.603Z,101967.24
2023-05-02T06:05:07.108Z,101965.87
2023-05-02T06:07:35.086Z,101969.77
2023-05-02T06:10:03.265Z,101964.37
2023-05-02T06:12:32.608Z,101967.77
2023-05-02T06:15:00.588Z,101974.87
2023-05-02T06:17:28.620Z,101970.16
2023-05-02T06:19:56.509Z,101967.73
2023-05-02T06:22:24.375Z,101982.26
2023-05-02T06:24:52.394Z,101982.59
2023-05-02T06:27:20.239Z,101977.05
2023-05-02T06:29:48.126Z,101987.95
2023-05-02T06:32:16.068Z,101988.41
2023-05-02T06:34:43.992Z,101992.52
2023-05-02T06:37:12.488Z,101999.20
2023-05-02T06:39:40.378Z,101994.12
2023-05-02T06:42:08.320Z,102004.00
2023-05-02T06:44:36.262Z,102002.07
2023-05-02T06:47:06.048Z,102010.05
2023-05-02T06:49:34.099Z,102007.83
2023-05-02T06:52:02.126Z,102007.27
2023-05-02T06:54:30.090Z,102015.25
2023-05-02T06:56:58.112Z,102004.13
2023-05-02T06:59:26.058Z,102012.11
2023-05-02T07:01:53.888Z,102010.70
2023-05-02T07:04:22.418Z,102015.05
2023-05-02T07:06:50.472Z,102011.23
2023-05-02T07:09:18.823Z,102020.02
2023-05-02T07:11:46.753Z,102012.90
2023-05-02T07:14:14.692Z,102010.21
2023-05-02T07:16:43.076Z,102017.27
2023-05-02T07:19:11.060Z,102011.75
2023-05-02T07:21:38.981Z,102020.38
2023-05-02T07:24:07.042Z,102019.92
2023-05-02T07:26:35.053Z,102023.75
2023-05-02T07:29:02.906Z,102024.27
2023-05-02T07:31:30.799Z,102030.55
2023-05-02T07:33:58.790Z,102026.56
2023-05-02T07:36:26.712Z,102022.61
2023-05-02T07:38:54.731Z,102026.79
2023-05-02T07:41:22.696Z,102033.50
2023-05-02T07:43:50.771Z,102028.43
2023-05-02T07:46:18.864Z,102032.12
2023-05-02T07:48:46.927Z,102038.53
2023-05-02T07:51:14.843Z,102039.48
2023-05-02T07:53:42.900Z,102028.30
2023-05-02T07:56:10.842Z,102036.30
2023-05-02T07:58:38.850Z,102035.03
2023-05-02T08:01:07.093Z,102036.93
2023-05-02T08:03:35.370Z,102038.08
2023-05-02T08:06:03.672Z,102041.73
2023-05-02T08:08:31.675Z,102045.40
2023-05-02T08:10:59.696Z,102047.49
2023-05-02T08:13:28.553Z,102049.42
2023-05-02T08:15:59.797Z,102050.01
2023-05-02T08:18:27.972Z,102054.82
2023-05-02T08:20:59.745Z,102054.66
2023-05-02T08:23:27.748Z,102053.54
2023-05-02T08:25:56.199Z,102056.59
2023-05-02T08:28:24.082Z,102055.47
2023-05-02T08:30:52.388Z,102057.40
2023-05-02T08:33:20.400Z,102073.65
2023-05-02T08:35:48.379Z,102065.67
2023-05-02T08:38:16.240Z,102068.09
2023-05-02T08:40:44.195Z,102071.92
2023-05-02T08:43:17.649Z,102069.04
2023-05-02T08:45:46.554Z,102069.20
2023-05-02T08:48:16.266Z,102072.09
2023-05-02T08:50:47.957Z,102070.68
2023-05-02T08:53:16.032Z,102070.97
2023-05-02T08:55:44.254Z,102070.48
2023-05-02T08:58:14.140Z,102078.03
2023-05-02T09:00:44.333Z,102081.70
2023-05-02T09:03:12.996Z,102081.70
2023-05-02T09:05:44.259Z,102081.04
2023-05-02T09:08:12.196Z,102086.80
2023-05-02T09:10:43.232Z,102081.08
2023-05-02T09:13:45.005Z,102081.53
2023-05-02T09:16:24.197Z,102080.75
2023-05-02T09:19:00.212Z,102084.87
2023-05-02T09:21:41.462Z,102093.50
2023-05-02T09:24:19.419Z,102093.96
2023-05-02T09:27:02.303Z,102095.20
2023-05-02T09:29:37.112Z,102089.48
2023-05-02T09:32:07.361Z,102093.77
2023-05-02T09:34:36.175Z,102093.60
2023-05-02T09:37:06.826Z,102088.79
2023-05-02T09:39:34.803Z,102092.62
2023-05-02T09:42:04.117Z,102086.66
2023-05-02T09:44:39.642Z,102091.28
2023-05-02T09:47:09.988Z,102091.24
2023-05-02T09:49:40.810Z,102090.40
2023-05-02T09:52:16.794Z,102092.29
2023-05-02T09:54:44.978Z,102094.61
2023-05-02T09:57:12.868Z,102089.58
2023-05-02T09:59:41.650Z,102096.45
2023-05-02T10:02:12.495Z,102098.87
2023-05-02T10:04:41.048Z,102097.39
2023-05-02T10:07:11.630Z,102103.45
2023-05-02T10:09:45.011Z,102098.30
2023-05-02T10:12:16.422Z,102101.38
2023-05-02T10:14:50.530Z,102097.39
2023-05-02T10:17:32.458Z,102102.33
2023-05-02T10:20:08.185Z,102096.58
2023-05-02T10:22:37.455Z,102103.15
2023-05-02T10:25:06.134Z,102100.76
2023-05-02T10:27:34.848Z,102102.52
2023-05-02T10:30:05.629Z,102100.92
2023-05-02T10:32:39.484Z,102097.88
2023-05-02T10:35:08.750Z,102091.93
2023-05-02T10:37:39.809Z,102089.15
2023-05-02T10:40:13.073Z,102087.52
2023-05-02T10:42:44.963Z,102089.05
2023-05-02T10:45:39.138Z,102077.77
2023-05-02T10:48:17.279Z,102071.63
2023-05-02T10:50:56.525Z,102076.40
2023-05-02T10:53:38.107Z,102079.87
2023-05-02T10:56:10.080Z,102083.16
2023-05-02T10:58:38.794Z,102073.03
2023-05-02T11:01:32.486Z,102073.95
2023-05-02T11:04:05.842Z,102077.74
2023-05-02T11:06:55.210Z,102070.68
2023-05-02T11:09:25.943Z,102073.85
2023-05-02T11:11:55.657Z,102072.97
2023-05-02T11:14:32.396Z,102070.97
2023-05-02T11:17:00.887Z,102067.18
2023-05-02T11:19:31.560Z,102071.95
2023-05-02T11:22:25.642Z,102066.06
2023-05-02T11:24:53.868Z,102058.88
2023-05-02T11:27:34.834Z,102059.27
2023-05-02T11:30:06.213Z,102060.44
2023-05-02T11:32:50.587Z,102056.13
2023-05-02T11:35:28.459Z,102051.45
2023-05-02T11:38:07.885Z,102053.12
2023-05-02T11:40:35.884Z,102051.68
2023-05-02T11:43:17.437Z,102052.27
2023-05-02T11:45:45.655Z,102042.66
2023-05-02T11:48:15.442Z,102044.32
2023-05-02T11:50:49.645Z,102044.45
2023-05-02T11:53:26.428Z,102051.38
2023-05-02T11:55:56.461Z,102049.88
2023-05-02T11:58:33.844Z,102053.84
2023-05-02T12:01:16.280Z,102050.63
2023-05-02T12:03:44.520Z,102056.26
2023-05-02T12:06:17.822Z,102053.54
2023-05-02T12:08:46.617Z,102058.61
2023-05-02T12:11:17.142Z,102056.09
2023-05-02T12:13:49.970Z,102060.70
2023-05-02T12:16:19.403Z,102060.28
2023-05-02T12:18:49.330Z,102062.77
2023-05-02T12:21:18.394Z,102072.41
2023-05-02T12:23:46.869Z,102067.57
2023-05-02T12:26:23.761Z,102071.43
2023-05-02T12:28:59.683Z,102070.05
2023-05-02T12:31:30.285Z,102070.68
2023-05-02T12:34:00.719Z,102078.27
2023-05-02T12:36:34.848Z,102072.34
2023-05-02T12:39:05.267Z,102078.55
2023-05-02T12:41:40.959Z,102077.09
2023-05-02T12:44:09.138Z,102077.22
2023-05-02T12:46:37.532Z,102085.59
2023-05-02T12:49:07.836Z,102081.11
2023-05-02T12:51:36.128Z,102088.30
2023-05-02T12:54:04.675Z,102080.81
2023-05-02T12:56:40.729Z,102074.34
2023-05-02T12:59:09.493Z,102072.64
2023-05-02T13:01:37.845Z,102059.88
2023-05-02T13:04:07.089Z,102063.48
2023-05-02T13:06:35.297Z,102059.49
2023-05-02T13:09:03.932Z,102060.31
2023-05-02T13:11:31.877Z,102061.72
2023-05-02T13:14:01.675Z,102059.43
2023-05-02T13:16:31.624Z,102047.49
2023-05-02T13:18:59.554Z,102046.77
2023-05-02T13:21:27.449Z,102034.25
2023-05-02T13:23:56.678Z,102045.59
2023-05-02T13:26:24.729Z,102042.69
2023-05-02T13:28:52.662Z,102048.08
2023-05-02T13:31:20.667Z,102042.13
2023-05-02T13:33:48.703Z,102046.38
2023-05-02T13:36:16.672Z,102038.11
2023-05-02T13:38:44.728Z,102035.62
2023-05-02T13:41:12.683Z,102036.30
2023-05-02T13:43:42.055Z,102034.09
2023-05-02T13:46:09.989Z,102033.70
2023-05-02T13:48:38.794Z,102028.30
2023-05-02T13:51:06.792Z,102025.78
2023-05-02T13:53:40.672Z,102025.59
2023-05-02T13:56:08.874Z,102016.98
2023-05-02T13:58:36.959Z,102018.16
2023-05-02T14:01:05.715Z,102015.35
2023-05-02T14:03:33.807Z,102018.78
2023-05-02T14:06:01.865Z,102016.43
2023-05-02T14:08:29.921Z,102019.60
2023-05-02T14:10:57.996Z,102013.91
2023-05-02T14:13:26.106Z,102006.39
2023-05-02T14:15:55.427Z,101996.97
2023-05-02T14:18:23.415Z,101998.41
2023-05-02T14:20:51.468Z,102003.97
2023-05-02T14:23:19.356Z,101999.65
2023-05-02T14:25:47.327Z,101993.51
2023-05-02T14:28:15.769Z,101988.96
2023-05-02T14:30:43.725Z,101990.49
2023-05-02T14:33:11.672Z,102000.47
2023-05-02T14:35:39.651Z,102004.88
2023-05-02T14:38:07.733Z,102011.66
2023-05-02T14:40:36.131Z,102018.65
2023-05-02T14:43:04.724Z,102010.45
2023-05-02T14:45:32.622Z,102017.18
2023-05-02T14:48:00.672Z,102018.42
2023-05-02T14:50:28.591Z,102022.80
2023-05-02T14:52:56.703Z,102028.00
2023-05-02T14:55:24.620Z,102025.59
2023-05-02T14:57:52.569Z,102028.49
2023-05-02T15:00:20.620Z,102026.89
2023-05-02T15:02:48.586Z,102027.48
2023-05-02T15:05:16.582Z,102023.62
2023-05-02T15:07:44.525Z,102031.99
2023-05-02T15:10:12.586Z,102031.99
2023-05-02T15:12:40.559Z,102038.27
2023-05-02T15:15:10.463Z,102043.24
2023-05-02T15:17:38.387Z,102047.72
2023-05-02T15:20:06.782Z,102045.43
2023-05-02T15:22:34.865Z,102041.45
2023-05-02T15:25:04.561Z,102045.23
2023-05-02T15:27:33.161Z,102056.98
2023-05-02T15:30:01.550Z,102048.84
2023-05-02T15:32:30.653Z,102059.46
2023-05-02T15:34:58.618Z,102049.09
2023-05-02T15:37:26.903Z,102052.46
2023-05-02T15:39:54.803Z,102042.85
2023-05-02T15:42:22.796Z,102035.06
2023-05-02T15:44:50.841Z,102038.83
2023-05-02T15:47:19.649Z,102039.41
2023-05-02T15:49:49.384Z,102051.25
2023-05-02T15:52:17.402Z,102039.71
2023-05-02T15:54:45.354Z,102040.40
2023-05-02T15:57:14.129Z,102040.85
2023-05-02T15:59:42.120Z,102044.45
2023-05-02T16:02:10.036Z,102036.99
2023-05-02T16:04:38.043Z,102039.74
2023-05-02T16:07:05.923Z,102042.26
2023-05-02T16:09:33.840Z,102044.55
2023-05-02T16:12:02.828Z,102052.79
2023-05-02T16:14:30.760Z,102055.02
2023-05-02T16:17:00.890Z,102064.07
2023-05-02T16:19:28.771Z,102062.60
2023-05-02T16:21:56.727Z,102065.87
2023-05-02T16:24:24.801Z,102072.57
2023-05-02T16:26:52.691Z,102074.53
2023-05-02T16:29:20.606Z,102074.44
2023-05-02T16:31:48.576Z,102084.28
2023-05-02T16:34:16.892Z,102082.61
2023-05-02T16:36:44.922Z,102086.14
2023-05-02T16:39:12.822Z,102089.94
2023-05-02T16:41:40.793Z,102093.50
2023-05-02T16:44:08.737Z,102085.23
2023-05-02T16:46:36.854Z,102092.59
2023-05-02T16:49:04.777Z,102084.94
2023-05-02T16:51:33.107Z,102096.67
2023-05-02T16:54:00.994Z,102091.08
2023-05-02T16:56:29.319Z,102093.77
2023-05-02T16:58:57.371Z,102097.66
2023-05-02T17:01:25.520Z,102090.30
2023-05-02T17:03:53.485Z,102090.30
2023-05-02T17:06:21.555Z,102088.37
2023-05-02T17:08:49.571Z,102091.41
2023-05-02T17:11:18.828Z,102088.40
2023-05-02T17:13:48.598Z,102081.92
2023-05-02T17:16:19.316Z,102084.70
2023-05-02T17:18:47.608Z,102093.34
2023-05-02T17:21:16.406Z,102098.18
2023-05-02T17:23:44.316Z,102102.52
2023-05-02T17:26:16.625Z,102104.00
2023-05-02T17:28:46.366Z,102111.26
2023-05-02T17:31:14.500Z,102118.65
2023-05-02T17:33:43.292Z,102118.52
2023-05-02T17:36:11.756Z,102122.67
2023-05-02T17:38:39.795Z,102126.53
2023-05-02T17:41:07.736Z,102131.37
2023-05-02T17:43:35.626Z,102128.66
2023-05-02T17:46:09.442Z,102137.45
2023-05-02T17:48:38.405Z,102142.09
2023-05-02T17:51:07.018Z,102154.62
2023-05-02T17:53:36.893Z,102154.78
2023-05-02T17:56:06.150Z,102153.05
2023-05-02T17:58:36.654Z,102163.12
2023-05-02T18:01:11.898Z,102168.91
2023-05-02T18:03:40.144Z,102162.20
2023-05-02T18:06:08.495Z,102162.86
2023-05-02T18:08:36.546Z,102162.20
2023-05-02T18:11:04.694Z,102150.23
2023-05-02T18:13:32.662Z,102148.44
2023-05-02T18:16:02.807Z,102152.63
2023-05-02T18:18:30.798Z,102160.93
2023-05-02T18:20:59.060Z,102161.91
2023-05-02T18:23:27.012Z,102156.77
2023-05-02T18:25:54.994Z,102162.20
2023-05-02T18:28:22.972Z,102175.16
2023-05-02T18:30:50.858Z,102188.89
2023-05-02T18:33:18.696Z,102209.98
2023-05-02T18:35:50.741Z,102224.83
2023-05-02T18:38:18.897Z,102226.72
2023-05-02T18:40:47.009Z,102235.68
2023-05-02T18:43:15.003Z,102252.72
2023-05-02T18:45:43.026Z,102264.00
2023-05-02T18:48:11.186Z,102267.79
2023-05-02T18:50:39.149Z,102270.87
2023-05-02T18:53:07.136Z,102278.78
2023-05-02T18:55:35.127Z,102283.33
2023-05-02T18:58:03.192Z,102278.32
2023-05-02T19:00:36.913Z,102279.17
2023-05-02T19:03:05.388Z,102279.23
2023-05-02T19:05:35.952Z,102274.37
2023-05-02T19:08:04.751Z,102274.40
2023-05-02T19:10:33.639Z,102272.37
2023-05-02T19:13:02.476Z,102278.84
2023-05-02T19:15:30.660Z,102273.91
2023-05-02T19:17:59.281Z,102278.75
2023-05-02T19:20:29.613Z,102285.55
2023-05-02T19:23:15.170Z,102289.90
2023-05-02T19:25:46.513Z,102292.19
2023-05-02T19:28:16.975Z,102285.74
2023-05-02T19:30:46.054Z,102280.61
2023-05-02T19:33:14.085Z,102289.67
2023-05-02T19:35:42.487Z,102286.46
2023-05-02T19:38:10.717Z,102294.28
2023-05-02T19:40:38.612Z,102291.04
2023-05-02T19:43:06.561Z,102298.40
2023-05-02T19:45:34.463Z,102296.77
2023-05-02T19:48:02.453Z,102306.28
2023-05-02T19:50:30.628Z,102302.26
2023-05-02T19:52:59.376Z,102304.35
2023-05-02T19:55:27.324Z,102308.93
2023-05-02T19:57:55.324Z,102311.35
2023-05-02T20:00:23.229Z,102311.77
2023-05-02T20:02:51.795Z,102310.99
2023-05-02T20:05:19.800Z,102305.73
2023-05-02T20:07:47.944Z,102304.13
2023-05-02T20:10:15.979Z,102306.64
2023-05-02T20:12:46.104Z,102306.15
2023-05-02T20:15:19.736Z,102304.55
2023-05-02T20:17:48.818Z,102304.55
2023-05-02T20:20:17.142Z,102306.64
2023-05-02T20:22:45.965Z,102314.75
2023-05-02T20:25:14.049Z,102311.45
2023-05-02T20:27:42.140Z,102313.48
2023-05-02T20:30:11.721Z,102316.71
2023-05-02T20:32:40.157Z,102318.31
2023-05-02T20:35:08.611Z,102317.40
2023-05-02T20:37:36.513Z,102318.19
2023-05-02T20:40:06.292Z,102315.70
2023-05-02T20:42:34.871Z,102316.81
2023-05-02T20:45:04.033Z,102318.45
2023-05-02T20:47:33.184Z,102321.75
2023-05-02T20:50:02.031Z,102325.31
2023-05-02T20:52:30.650Z,102307.78
2023-05-02T20:54:58.551Z,102320.84
2023-05-02T20:57:26.712Z,102320.84
2023-05-02T20:59:54.828Z,102315.11
2023-05-02T21:02:22.788Z,102314.65
2023-05-02T21:04:50.723Z,102315.11
2023-05-02T21:07:18.557Z,102308.60
2023-05-02T21:09:46.665Z,102311.45
2023-05-02T21:12:14.621Z,102309.39
2023-05-02T21:14:42.560Z,102306.41
2023-05-02T21:17:10.472Z,102300.33
2023-05-02T21:19:39.089Z,102308.93
2023-05-02T21:22:07.050Z,102308.60
2023-05-02T21:24:35.021Z,102298.86
2023-05-02T21:27:03.307Z,102300.46
2023-05-02T21:29:31.283Z,102296.77
2023-05-02T21:31:59.213Z,102307.00
2023-05-02T21:34:27.133Z,102297.13
2023-05-02T21:36:55.122Z,102294.12
2023-05-02T21:39:23.148Z,102306.05
2023-05-02T21:41:51.079Z,102299.09
2023-05-02T21:44:19.281Z,102296.54
2023-05-02T21:46:48.487Z,102297.71
2023-05-02T21:49:16.727Z,102295.30
2023-05-02T21:51:44.714Z,102293.69
2023-05-02T21:54:12.970Z,102287.61
2023-05-02T21:56:40.888Z,102294.28
2023-05-02T21:59:08.819Z,102290.81
2023-05-02T22:01:36.796Z,102280.28
2023-05-02T22:04:05.009Z,102285.22
2023-05-02T22:06:34.152Z,102288.52
2023-05-02T22:09:02.191Z,102287.38
2023-05-02T22:11:31.408Z,102284.17
2023-05-02T22:13:59.254Z,102291.60
2023-05-02T22:16:27.805Z,102286.37
2023-05-02T22:18:55.872Z,102289.31
2023-05-02T22:21:23.774Z,102290.55
2023-05-02T22:23:51.660Z,102281.73
2023-05-02T22:26:19.549Z,102284.70
2023-05-02T22:28:47.465Z,102280.22
2023-05-02T22:31:16.679Z,102280.35
2023-05-02T22:33:46.965Z,102282.97
2023-05-02T22:36:14.833Z,102286.63
2023-05-02T22:38:42.881Z,102286.27
2023-05-02T22:41:11.329Z,102284.24
2023-05-02T22:43:39.184Z,102277.80
2023-05-02T22:46:07.104Z,102267.27
2023-05-02T22:48:35.037Z,102267.37
2023-05-02T22:51:03.050Z,102271.91
2023-05-02T22:53:31.593Z,102281.07
2023-05-02T22:55:59.407Z,102269.82
2023-05-02T22:58:27.320Z,102278.65
2023-05-02T23:00:55.183Z,102278.35
2023-05-02T23:03:23.151Z,102269.10
2023-05-02T23:05:51.255Z,102278.59
2023-05-02T23:08:19.203Z,102281.98
2023-05-02T23:10:47.776Z,102288.63
2023-05-02T23:13:15.712Z,102283.72
2023-05-02T23:15:43.593Z,102284.96
2023-05-02T23:18:11.835Z,102275.67
2023-05-02T23:20:39.860Z,102274.98
2023-05-02T23:23:07.970Z,102281.59
2023-05-02T23:25:37.207Z,102282.51
2023-05-02T23:28:05.166Z,102282.15
2023-05-02T23:30:33.613Z,102282.67
2023-05-02T23:33:02.288Z,102287.61
2023-05-02T23:35:30.504Z,102284.41
2023-05-02T23:38:05.995Z,102282.41
2023-05-02T23:40:34.124Z,102283.69
2023-05-02T23:43:02.386Z,102282.97
2023-05-02T23:45:30.262Z,102281.46
2023-05-02T23:47:58.279Z,102274.92
2023-05-02T23:50:26.226Z,102278.95
2023-05-02T23:52:54.236Z,102276.55
2023-05-02T23:55:22.212Z,102268.77
2023-05-02T23:57:50.215Z,102270.02
